Flight Track Log - Related Links

Times and Time Zones

All times are in EDT time to prevent confusion due to time zone crossing. See the AAL1774 flight status page for this flight to view local times or setup timezone preferences in your user account.

Time Position Orientation Groundspeed Altitude Reporting Facility
EDT Latitude Longitude Course Direction KTS MPH feet Rate Location/Type
Fri 09:02:47 AM 18.3333 -65.0000 281° West 170 196 1,400  Level San Center
Fri 09:03:47 AM 18.3333 -65.0500 270° West 220 253 3,300 2,200 Climbing San Center
Fri 09:04:47 AM 18.3167 -65.1333 258° West 270 311 5,800 2,628 Climbing San Center
Fri 09:05:00 AM 18.2945 -65.3002 283° West  Level FlightAware
Fri 09:05:48 AM 18.3167 -65.2167 270° West 280 322 8,600  Level San Center
Fri 09:06:00 AM 18.3188 -65.4107 282° West  Level FlightAware
Fri 09:06:48 AM 18.3167 -65.3000 270° West 300 345 10,700  Level San Center
Fri 09:07:00 AM 18.3410 -65.5218 282° West  Level FlightAware
Fri 09:07:48 AM 18.3167 -65.4000 270° West 330 380 12,200  Level San Center
Fri 09:08:00 AM 18.3692 -65.6310 281° West  Level FlightAware
Fri 09:08:49 AM 18.3333 -65.4833 282° West 330 380 14,200  Level San Center
Fri 09:09:49 AM 18.4000 -65.5667 310° West 350 403 16,300 1,950 Climbing San Center
Fri 09:10:49 AM 18.4667 -65.6500 310° West 360 414 18,100 1,835 Climbing San Center
Fri 09:11:50 AM 18.5333 -65.7500 305° West 370 426 20,000 1,736 Climbing San Center
Fri 09:12:50 AM 18.6000 -65.8333 310° West 380 437 21,600 1,550 Climbing San Center
Fri 09:13:50 AM 18.6667 -65.9167 310° West 380 437 23,100 1,488 Climbing San Center
Fri 09:14:51 AM 18.7333 -66.0167 305° West 380 437 24,600 1,438 Climbing San Center
Fri 09:15:51 AM 18.8000 -66.1000 310° West 400 460 26,000 1,400 Climbing San Center
Fri 09:16:51 AM 18.8667 -66.2000 305° West 410 472 27,400 1,450 Climbing San Center
Fri 09:17:51 AM 18.9333 -66.3000 305° West 420 483 28,900 1,438 Climbing San Center
Fri 09:18:52 AM 19.0000 -66.4000 305° West 420 483 30,300 1,736 Climbing San Center
Fri 09:19:52 AM 19.0833 -66.4833 317° Northwest 410 472 32,400 1,850 Climbing San Center
Fri 09:20:52 AM 19.1500 -66.5833 305° West 400 460 34,000 800 Climbing San Center
Fri 09:21:52 AM 19.2000 -66.6667 302° West 370 426 34,000  Level San Center
Fri 09:22:53 AM 19.2667 -66.7500 310° West 400 460 34,000  Level San Center
Fri 09:23:53 AM 19.3333 -66.8500 305° West 400 460 34,000  Level San Center
Fri 09:24:53 AM 19.4000 -66.9500 305° West 410 472 34,000  Level San Center
Fri 09:25:53 AM 19.4833 -67.0667 307° West 410 472 34,000  Level San Center
Fri 09:26:54 AM 19.5500 -67.1667 305° West 420 483 34,000  Level San Center
Fri 09:27:54 AM 19.6167 -67.2500 310° West 410 472 34,000  Level San Center
Fri 09:28:54 AM 19.6833 -67.3500 305° West 410 472 34,000  Level San Center
Fri 09:29:55 AM 19.7667 -67.4500 312° West 410 472 34,000  Level San Center
Fri 09:30:55 AM 19.8333 -67.5500 305° West 410 472 34,000  Level San Center
Fri 09:31:55 AM 19.9000 -67.6500 305° West 410 472 34,000  Level San Center
Fri 09:32:56 AM 19.9667 -67.7333 310° West 410 472 34,000  Level San Center
Fri 09:33:56 AM 20.0333 -67.8333 305° West 400 460 34,000  Level San Center
Fri 09:34:56 AM 20.1000 -67.9333 305° West 400 460 34,000  Level San Center
Fri 09:35:45 AM 20.1486 -68.0194 301° West 398 458 34,000  Level Miami Center
Fri 09:36:45 AM 20.2222 -68.1097 311° West 520 598 34,000  Level Miami Center
Fri 09:37:45 AM 20.2858 -68.2047 306° West 448 516 34,000  Level Miami Center
Fri 09:38:45 AM 20.3494 -68.3022 305° West 414 476 34,000  Level Miami Center
Fri 09:39:45 AM 20.4031 -68.4072 299° West 403 464 34,000  Level Miami Center
Fri 09:40:45 AM 20.4525 -68.5100 297° West 393 452 34,000  Level Miami Center
Fri 09:41:45 AM 20.5078 -68.6128 300° West 393 452 34,000  Level Miami Center
Fri 09:42:45 AM 20.5592 -68.7181 298° West 398 458 34,000  Level Miami Center
Fri 09:43:45 AM 20.6106 -68.8233 298° West 398 458 34,000  Level Miami Center
Fri 09:44:45 AM 20.6614 -68.9242 298° West 398 458 34,000  Level Miami Center
Fri 09:45:45 AM 20.7011 -69.0083 297° West 398 458 34,000  Level Miami Center
Fri 09:46:45 AM 20.7589 -69.1222 298° West 398 458 34,000  Level Miami Center
Fri 09:47:45 AM 20.8081 -69.2281 296° West 398 458 34,000  Level Miami Center
Fri 09:48:45 AM 20.8569 -69.3339 296° West 398 458 34,000  Level Miami Center
Fri 09:49:45 AM 20.9097 -69.4372 299° West 398 458 34,000  Level Miami Center
Fri 09:50:45 AM 20.9606 -69.5411 298° West 398 458 34,000  Level Miami Center
Fri 09:51:45 AM 21.0092 -69.6450 297° West 398 458 34,000  Level Miami Center
Fri 09:52:45 AM 21.0600 -69.7508 297° West 398 458 34,000  Level Miami Center
Fri 09:53:45 AM 21.1125 -69.8525 299° West 398 458 34,000  Level Miami Center
Fri 09:54:45 AM 21.1611 -69.9567 297° West 398 458 34,000  Level Miami Center
Fri 09:55:45 AM 21.2114 -70.0608 297° West 398 458 34,000  Level Miami Center
Fri 09:56:45 AM 21.2600 -70.1650 297° West 398 458 34,000  Level Miami Center
Fri 09:57:45 AM 21.3125 -70.2714 298° West 398 458 34,000  Level Miami Center
Fri 09:58:45 AM 21.3628 -70.3781 297° West 398 458 34,000  Level Miami Center
Fri 09:59:45 AM 21.4131 -70.4847 297° West 398 458 34,000  Level Miami Center
Fri 10:00:45 AM 21.4633 -70.5914 297° West 398 458 34,000  Level Miami Center
Fri 10:01:45 AM 21.5156 -70.6958 298° West 398 458 34,000  Level Miami Center
Fri 10:02:45 AM 21.5658 -70.8028 297° West 398 458 34,000  Level Miami Center
Fri 10:03:45 AM 21.6225 -70.9208 297° West 398 458 34,000  Level Miami Center
Fri 10:04:45 AM 21.6725 -71.0256 297° West 398 458 34,000  Level Miami Center
Fri 10:05:45 AM 21.7222 -71.1283 298° West 398 458 34,000  Level Miami Center
Fri 10:06:45 AM 21.7700 -71.2336 296° West 398 458 34,000  Level Miami Center
Fri 10:07:45 AM 21.8153 -71.3344 296° West 398 458 34,000  Level Miami Center
Fri 10:08:45 AM 21.8631 -71.4397 296° West 393 452 34,000  Level Miami Center
Fri 10:09:45 AM 21.9103 -71.5383 297° West 393 452 34,000  Level Miami Center
Fri 10:10:45 AM 21.9575 -71.6417 296° West 393 452 34,000  Level Miami Center
Fri 10:11:45 AM 22.0050 -71.7472 296° West 388 447 34,000 100 Level Miami Center
Fri 10:12:45 AM 22.0544 -71.8506 297° West 388 447 34,200 1,150 Climbing Miami Center
Fri 10:13:45 AM 22.0994 -71.9494 296° West 383 441 36,300 1,600 Climbing Miami Center
Fri 10:14:45 AM 22.1442 -72.0464 296° West 378 435 37,400 850 Climbing Miami Center
Fri 10:15:45 AM 22.1889 -72.1456 296° West 373 429 38,000 300 Climbing Miami Center
Fri 10:16:45 AM 22.2358 -72.2469 297° West 373 429 38,000  Level Miami Center
Fri 10:17:45 AM 22.2786 -72.3464 295° West 373 429 38,000  Level Miami Center
Fri 10:18:45 AM 22.3253 -72.4436 297° West 373 429 38,000  Level Miami Center
Fri 10:19:45 AM 22.3678 -72.5431 295° West 373 429 38,000  Level Miami Center
Fri 10:20:45 AM 22.4144 -72.6447 296° West 373 429 38,000  Level Miami Center
Fri 10:21:45 AM 22.4592 -72.7444 296° West 373 429 38,000  Level Miami Center
Fri 10:22:45 AM 22.5056 -72.8419 297° West 373 429 38,000  Level Miami Center
Fri 10:23:45 AM 22.5519 -72.9417 297° West 368 423 38,000  Level Miami Center
Fri 10:24:45 AM 22.5961 -73.0392 296° West 368 423 38,000  Level Miami Center
Fri 10:25:45 AM 22.6364 -73.1394 294° West 368 423 38,000  Level Miami Center
Fri 10:26:45 AM 22.6739 -73.2306 294° West 368 423 38,000  Level Miami Center
Fri 10:27:45 AM 22.7222 -73.3214 300° West 363 418 38,000  Level Miami Center
Fri 10:28:45 AM 22.7642 -73.4217 294° West 357 411 38,000  Level Miami Center
Fri 10:29:45 AM 22.8206 -73.5147 303° West 357 411 38,000  Level Miami Center
Fri 10:30:45 AM 22.9014 -73.5892 320° Northwest 374 430 38,000  Level Miami Center
Fri 10:31:45 AM 22.9825 -73.6683 318° Northwest 379 436 38,000  Level Miami Center
Fri 10:32:45 AM 23.0594 -73.7500 316° Northwest 384 442 38,000  Level Miami Center
Fri 10:33:45 AM 23.1136 -73.8436 302° West 378 435 38,000  Level Miami Center
Fri 10:34:45 AM 23.1575 -73.9442 295° West 364 419 38,000  Level Miami Center
Fri 10:35:45 AM 23.1969 -74.0450 293° West 369 425 38,000  Level Miami Center
Fri 10:36:45 AM 23.2406 -74.1458 295° West 369 425 38,000  Level Miami Center
Fri 10:37:45 AM 23.2800 -74.2444 294° West 364 419 38,000  Level Miami Center
Fri 10:38:45 AM 23.3256 -74.3453 296° West 364 419 38,000  Level Miami Center
Fri 10:39:45 AM 23.3647 -74.4464 293° West 364 419 38,000  Level Miami Center
Fri 10:40:45 AM 23.4039 -74.5453 293° West 364 419 38,000  Level Miami Center
Fri 10:41:45 AM 23.4453 -74.6464 294° West 369 425 38,000  Level Miami Center
Fri 10:42:45 AM 23.4864 -74.7475 294° West 369 425 38,000  Level Miami Center
Fri 10:43:45 AM 23.5275 -74.8467 294° West 369 425 38,000  Level Miami Center
Fri 10:44:45 AM 23.5683 -74.9481 294° West 369 425 38,000  Level Miami Center
Fri 10:45:45 AM 23.6094 -75.0469 294° West 369 425 38,000  Level Miami Center
Fri 10:46:45 AM 23.6481 -75.1486 293° West 369 425 38,000  Level Miami Center
Fri 10:47:45 AM 23.6889 -75.2500 294° West 369 425 38,000  Level Miami Center
Fri 10:48:45 AM 23.7297 -75.3472 295° West 369 425 38,000  Level Miami Center
Fri 10:49:45 AM 23.7706 -75.4489 294° West 364 419 38,000  Level Miami Center
Fri 10:50:45 AM 23.8111 -75.5528 293° West 364 419 38,000  Level Miami Center
Fri 10:51:45 AM 23.8517 -75.6525 294° West 364 419 38,000  Level Miami Center
Fri 10:52:45 AM 23.8900 -75.7567 292° West 369 425 38,000  Level Miami Center
Fri 10:53:45 AM 23.9306 -75.8586 294° West 369 425 38,000  Level Miami Center
Fri 10:54:45 AM 23.9708 -75.9628 293° West 374 430 38,000  Level Miami Center
Fri 10:55:45 AM 24.0133 -76.0650 294° West 374 430 38,000  Level Miami Center
Fri 10:56:45 AM 24.0514 -76.1669 292° West 374 430 38,000  Level Miami Center
Fri 10:57:45 AM 24.0936 -76.2739 293° West 374 430 38,000  Level Miami Center
Fri 10:58:45 AM 24.1317 -76.3761 292° West 374 430 38,000  Level Miami Center
Fri 10:59:45 AM 24.1736 -76.4808 294° West 374 430 38,000  Level Miami Center
Fri 11:00:45 AM 24.2117 -76.5808 293° West 374 430 38,000  Level Miami Center
Fri 11:01:45 AM 24.2514 -76.6833 293° West 368 423 38,000  Level Miami Center
Fri 11:02:45 AM 24.2914 -76.7814 294° West 368 423 38,000  Level Miami Center
Fri 11:03:45 AM 24.3289 -76.8817 292° West 363 418 38,000  Level Miami Center
Fri 11:04:45 AM 24.3686 -76.9819 294° West 363 418 38,000  Level Miami Center
Fri 11:05:45 AM 24.4061 -77.0825 292° West 358 412 38,000  Level Miami Center
Fri 11:06:45 AM 24.4436 -77.1831 292° West 358 412 38,000  Level Miami Center
Fri 11:07:45 AM 24.4831 -77.2836 293° West 358 412 38,000  Level Miami Center
Fri 11:08:45 AM 24.5203 -77.3819 293° West 358 412 38,000  Level Miami Center
Fri 11:09:45 AM 24.5617 -77.4917 293° West 358 412 38,000  Level Miami Center
Fri 11:10:45 AM 24.5989 -77.5925 292° West 358 412 38,000  Level Miami Center
Fri 11:11:45 AM 24.6358 -77.6933 292° West 358 412 38,000  Level Miami Center
Fri 11:12:45 AM 24.6750 -77.7919 294° West 358 412 38,000  Level Miami Center
Fri 11:13:45 AM 24.7119 -77.8906 292° West 358 412 38,000 -300 Level Miami Center
Fri 11:14:45 AM 24.7489 -77.9917 292° West 358 412 37,400 -800 Descending Miami Center
Fri 11:15:45 AM 24.7878 -78.0925 293° West 358 412 36,400 -1,050 Descending Miami Center
Fri 11:16:45 AM 24.8267 -78.1914 293° West 358 412 35,300 -1,150 Descending Miami Center
Fri 11:17:45 AM 24.8633 -78.2972 291° West 358 412 34,100 -1,350 Descending Miami Center
Fri 11:18:45 AM 24.9061 -78.4056 294° West 364 419 32,600 -1,450 Descending Miami Center
Fri 11:19:45 AM 24.9486 -78.5228 292° West 389 448 31,200 -1,500 Descending Miami Center
Fri 11:20:45 AM 24.9933 -78.6403 293° West 408 470 29,600 -1,900 Descending Miami Center
Fri 11:21:45 AM 25.0358 -78.7581 292° West 415 478 27,400 -2,400 Descending Miami Center
Fri 11:22:45 AM 25.0842 -78.8803 294° West 420 483 24,800 -2,650 Descending Miami Center
Fri 11:23:45 AM 25.1244 -78.9981 291° West 420 483 22,100 -2,800 Descending Miami Center
Fri 11:24:45 AM 25.1708 -79.1136 294° West 415 478 19,200 -2,700 Descending Miami Center
Fri 11:25:45 AM 25.2128 -79.2292 292° West 415 478 16,700 -2,700 Descending Miami Center
Fri 11:26:45 AM 25.2528 -79.3403 292° West 404 465 13,800 -2,850 Descending Miami Center
Fri 11:27:45 AM 25.2928 -79.4492 292° West 393 452 11,000 -2,483 Descending Miami Center
Fri 11:28:12 AM 25.3086 -79.5000 289° West 379 436 10,200 -1,000 Descending Miami Center
Fri 11:28:45 AM 25.3283 -79.5533 292° West 383 441 10,000 -140 Descending Miami Center
Fri 11:29:38 AM 25.3542 -79.6297 291° West 284 327 10,000 -50 Level Miami Center
Fri 11:30:45 AM 25.3881 -79.7133 294° West 299 344 9,900 -661 Descending Miami Center
Fri 11:31:45 AM 25.4328 -79.7833 305° West 280 322 8,600 -1,333 Descending Miami Center
Fri 11:32:42 AM 25.4775 -79.8419 310° West 277 319 7,300 -1,373 Descending Miami Center
Fri 11:33:43 AM 25.5303 -79.9122 310° West 273 314 5,900 -1,377 Descending Miami Center
Fri 11:34:44 AM 25.5814 -79.9736 313° West 262 302 4,500 -1,377 Descending Miami Center
Fri 11:35:45 AM 25.6322 -80.0303 315° West 265 305 3,100 -1,377 Descending Miami Center

Login

Don't have an account? Register now (free) for customized features, flight alerts, and more!